createdAt,value
2023-02-09T00:01:32.222Z,27.67
2023-02-09T00:07:35.413Z,19.67
2023-02-09T00:13:38.455Z,16.00
2023-02-09T00:19:40.958Z,18.00
2023-02-09T00:25:44.996Z,15.67
2023-02-09T00:31:48.526Z,19.00
2023-02-09T00:37:51.970Z,15.67
2023-02-09T00:43:56.274Z,16.00
2023-02-09T00:50:00.437Z,13.67
2023-02-09T00:56:04.470Z,18.00
2023-02-09T01:02:07.242Z,15.33
2023-02-09T01:08:10.202Z,15.00
2023-02-09T01:14:12.358Z,16.00
2023-02-09T01:20:16.867Z,18.67
2023-02-09T01:26:19.838Z,24.67
2023-02-09T01:32:22.016Z,27.67
2023-02-09T01:38:26.472Z,22.67
2023-02-09T01:44:37.801Z,20.33
2023-02-09T01:50:43.789Z,13.67
2023-02-09T01:56:51.173Z,16.67
2023-02-09T02:02:58.096Z,21.00
2023-02-09T02:09:09.919Z,15.00
2023-02-09T02:15:13.445Z,12.67
2023-02-09T02:21:46.844Z,18.67
2023-02-09T02:28:14.791Z,18.33
2023-02-09T02:34:24.909Z,18.00
2023-02-09T02:40:35.546Z,16.00
2023-02-09T02:46:48.866Z,15.67
2023-02-09T02:52:57.713Z,24.67
2023-02-09T02:59:06.169Z,16.00
2023-02-09T03:05:09.786Z,30.33
2023-02-09T03:11:12.182Z,28.00
2023-02-09T03:17:29.710Z,35.75
2023-02-09T03:23:54.211Z,27.67
2023-02-09T03:30:01.105Z,39.67
2023-02-09T03:36:09.576Z,37.00
2023-02-09T03:42:13.347Z,28.67
2023-02-09T03:48:16.570Z,35.67
2023-02-09T03:54:20.848Z,36.33
2023-02-09T04:00:23.525Z,37.00
2023-02-09T04:06:26.818Z,32.67
2023-02-09T04:12:28.884Z,41.33
2023-02-09T04:18:32.042Z,36.75
2023-02-09T04:24:35.405Z,41.50
2023-02-09T04:30:38.712Z,41.00
2023-02-09T04:36:41.264Z,46.50
2023-02-09T04:42:47.195Z,45.75
2023-02-09T04:48:49.318Z,46.00
2023-02-09T04:54:54.544Z,32.25
2023-02-09T05:07:46.870Z,42.25
2023-02-09T05:13:48.992Z,50.50
2023-02-09T08:33:33.124Z,43.00
2023-02-09T08:39:38.614Z,46.67
2023-02-09T08:45:42.100Z,24.33
2023-02-09T08:51:44.631Z,25.00
2023-02-09T08:57:49.376Z,28.33
2023-02-09T09:03:54.027Z,42.00
2023-02-09T09:09:59.133Z,48.00
2023-02-09T09:16:05.222Z,26.00
2023-02-09T09:22:07.559Z,31.33
2023-02-09T09:28:15.126Z,19.67
2023-02-09T09:34:18.161Z,53.00
2023-02-09T09:40:23.666Z,25.75
2023-02-09T09:46:50.113Z,21.25
2023-02-09T09:52:58.042Z,20.00
2023-02-09T09:59:03.471Z,25.33
2023-02-09T10:05:27.734Z,32.67
2023-02-09T10:11:53.115Z,29.67
2023-02-09T10:18:00.604Z,22.33
2023-02-09T10:24:02.869Z,26.00
2023-02-09T10:30:21.813Z,27.00
2023-02-09T10:36:32.500Z,28.67
2023-02-09T10:42:38.194Z,25.00
2023-02-09T10:48:45.663Z,20.67
2023-02-09T10:54:53.365Z,37.67
2023-02-09T11:01:01.847Z,21.00
2023-02-09T11:07:18.088Z,21.00
2023-02-09T11:13:27.646Z,23.25
2023-02-09T11:19:35.645Z,24.00
2023-02-09T11:26:11.554Z,24.00
2023-02-09T11:32:25.393Z,29.00
2023-02-09T11:38:41.670Z,29.25
2023-02-09T11:45:02.033Z,22.25
2023-02-09T11:51:22.564Z,18.25
2023-02-09T11:57:37.638Z,18.25
2023-02-09T12:03:56.677Z,22.25
2023-02-09T12:10:46.455Z,27.00
2023-02-09T12:16:59.224Z,33.25
2023-02-09T12:23:32.285Z,45.25
2023-02-09T12:29:40.478Z,41.00
2023-02-09T12:35:58.171Z,27.25
2023-02-09T12:42:26.525Z,33.00
2023-02-09T12:48:29.187Z,35.50
2023-02-09T12:54:50.518Z,43.00
2023-02-09T13:00:58.144Z,51.25
2023-02-09T13:07:05.657Z,42.50
2023-02-09T13:13:23.579Z,37.25
2023-02-09T13:19:50.765Z,42.00
2023-02-09T13:26:03.175Z,42.50
2023-02-09T13:32:22.237Z,42.50
2023-02-09T13:38:30.354Z,34.50
2023-02-09T13:44:35.107Z,44.00
2023-02-09T13:50:37.357Z,48.33
2023-02-09T13:56:43.388Z,42.00
2023-02-09T14:02:52.439Z,41.67
2023-02-09T14:08:55.703Z,42.67
2023-02-09T14:15:16.656Z,34.00
2023-02-09T14:21:40.266Z,71.33
2023-02-09T14:27:47.957Z,37.00
2023-02-09T14:33:53.263Z,39.00
2023-02-09T14:40:34.190Z,30.50
2023-02-09T14:46:51.304Z,26.00
2023-02-09T14:53:12.330Z,26.33
2023-02-09T14:59:20.493Z,35.33
2023-02-09T15:05:26.112Z,32.67
2023-02-09T15:11:47.791Z,25.33
2023-02-09T15:17:54.388Z,28.00
2023-02-09T15:23:57.431Z,30.33
2023-02-09T15:30:02.988Z,27.33
2023-02-09T15:36:06.970Z,26.33
2023-02-09T15:42:35.484Z,28.33
2023-02-09T15:48:37.685Z,34.33
2023-02-09T15:54:41.175Z,31.67
2023-02-09T16:00:45.436Z,31.67
2023-02-09T16:06:53.539Z,28.33
2023-02-09T16:12:56.853Z,29.33
2023-02-09T16:18:59.037Z,25.67
2023-02-09T16:25:01.874Z,24.00
2023-02-09T16:31:04.530Z,24.33
2023-02-09T16:37:07.373Z,30.00
2023-02-09T16:43:11.473Z,17.33
2023-02-09T16:49:39.564Z,20.33
2023-02-09T16:55:42.278Z,22.00
2023-02-09T17:01:45.235Z,23.67
2023-02-09T17:07:55.545Z,21.67
2023-02-09T17:13:58.083Z,28.00
2023-02-09T17:20:00.830Z,22.00
2023-02-09T17:26:04.804Z,21.33
2023-02-09T17:32:07.567Z,18.33
2023-02-09T17:38:22.875Z,19.67
2023-02-09T17:44:45.187Z,20.67
2023-02-09T17:50:50.257Z,20.33
2023-02-09T17:56:52.890Z,24.33
2023-02-09T18:02:59.410Z,21.33
2023-02-09T18:09:05.828Z,26.33
2023-02-09T18:15:20.641Z,29.33
2023-02-09T18:21:23.725Z,51.67
2023-02-09T18:27:27.115Z,30.67
2023-02-09T18:33:29.455Z,29.33
2023-02-09T18:39:31.650Z,30.00
2023-02-09T18:45:34.509Z,29.33
2023-02-09T18:51:39.123Z,34.33
2023-02-09T18:57:42.818Z,26.67
2023-02-09T19:03:45.745Z,22.00
2023-02-09T19:09:48.109Z,25.67
2023-02-09T19:15:50.495Z,21.00
2023-02-09T19:21:53.498Z,24.00
2023-02-09T19:27:57.808Z,23.67
2023-02-09T19:34:00.940Z,25.67
2023-02-09T19:40:05.156Z,26.00
2023-02-09T19:46:10.444Z,24.33
2023-02-09T19:52:14.452Z,22.00
2023-02-09T19:58:17.472Z,25.00
2023-02-09T20:04:20.903Z,27.67
2023-02-09T20:10:24.449Z,23.00
2023-02-09T20:16:27.808Z,20.67
2023-02-09T20:22:31.060Z,19.00
2023-02-09T20:28:33.317Z,18.33
2023-02-09T20:34:35.505Z,19.67
2023-02-09T20:40:43.031Z,19.00
2023-02-09T20:46:59.352Z,27.67
2023-02-09T20:53:02.908Z,13.67
2023-02-09T20:59:07.409Z,17.33
2023-02-09T21:05:09.767Z,21.00
2023-02-09T21:11:12.002Z,17.33
2023-02-09T21:17:14.806Z,13.00
2023-02-09T21:23:19.278Z,21.33
2023-02-09T21:29:22.183Z,28.67
2023-02-09T21:35:24.741Z,23.00
2023-02-09T21:41:46.390Z,26.33
2023-02-09T21:47:48.485Z,32.33
2023-02-09T21:53:50.684Z,36.67
2023-02-09T21:59:53.750Z,34.67
2023-02-09T22:05:59.595Z,47.33
2023-02-09T22:12:02.208Z,56.67
2023-02-09T22:18:05.478Z,60.67
2023-02-09T22:24:07.677Z,66.75
2023-02-09T22:30:10.312Z,76.00
2023-02-09T22:36:16.226Z,63.50
2023-02-09T22:42:18.308Z,73.50
2023-02-09T22:48:20.507Z,76.50
2023-02-09T22:54:24.125Z,76.75
2023-02-09T23:00:26.284Z,70.50
2023-02-09T23:06:30.134Z,72.25
2023-02-09T23:12:32.310Z,60.00
2023-02-09T23:18:34.950Z,74.00
2023-02-09T23:24:37.112Z,61.75
2023-02-09T23:30:39.201Z,71.25
2023-02-09T23:36:41.477Z,74.50
2023-02-09T23:42:43.624Z,53.67
2023-02-09T23:48:46.187Z,63.75
2023-02-09T23:54:48.536Z,54.50
